Time;durP1;ratioP1;P1;durP2;ratioP2;P2;SDS_P1;SDS_P2;PMS_P1;PMS_P2;Temp;Humidity;BMP_temperature;BMP_pressure;BME280_temperature;BME280_humidity;BME280_pressure;Samples;Min_cycle;Max_cycle;Signal;HPM_P1;HPM_P2
2021/10/23 00:00:16;;;;;;;;;6.75;6.50;;;;;12.12;64.99;102354.28;5058802;28;45352;-77
2021/10/23 00:02:42;;;;;;;;;11.50;7.00;;;;;12.14;64.59;102356.16;5058613;28;45400;-76
2021/10/23 00:05:08;;;;;;;;;8.50;8.00;;;;;12.13;64.67;102345.69;5058818;28;45684;-77
2021/10/23 00:07:33;;;;;;;;;8.50;8.50;;;;;12.12;64.53;102338.69;5058686;28;45185;-77
2021/10/23 00:09:59;;;;;;;;;4.75;4.75;;;;;12.14;64.62;102345.78;5058558;28;45431;-77
2021/10/23 00:12:25;;;;;;;;;9.50;9.00;;;;;12.11;64.55;102345.56;5058534;28;45366;-78
2021/10/23 00:14:50;;;;;;;;;11.50;8.75;;;;;12.18;64.45;102358.16;5058290;28;45238;-77
2021/10/23 00:17:16;;;;;;;;;8.00;8.00;;;;;12.15;64.71;102341.50;5058553;28;46065;-77
2021/10/23 00:19:41;;;;;;;;;14.00;8.50;;;;;12.16;64.70;102346.78;5058334;28;45451;-77
2021/10/23 00:22:07;;;;;;;;;8.00;8.00;;;;;12.18;64.72;102355.56;5058339;28;45283;-77
2021/10/23 00:24:33;;;;;;;;;7.75;6.50;;;;;12.16;64.56;102351.06;5059205;28;45478;-77
2021/10/23 00:26:58;;;;;;;;;10.00;7.50;;;;;12.12;64.45;102341.28;5057448;28;45464;-77
2021/10/23 00:29:24;;;;;;;;;6.75;6.25;;;;;12.17;64.15;102345.06;5054117;28;45312;-78
2021/10/23 00:31:50;;;;;;;;;8.00;6.75;;;;;12.20;64.53;102360.84;5058327;28;45371;-77
2021/10/23 00:34:15;;;;;;;;;6.75;6.25;;;;;12.11;64.33;102345.56;5058179;28;45429;-76
2021/10/23 00:36:41;;;;;;;;;10.00;7.00;;;;;12.17;64.55;102361.56;5058084;28;45816;-79
2021/10/23 00:39:07;;;;;;;;;9.50;8.00;;;;;12.16;64.04;102362.34;5058187;28;45493;-77
2021/10/23 00:41:33;;;;;;;;;8.75;8.75;;;;;12.08;64.29;102350.59;5058886;28;45421;-77
2021/10/23 00:43:58;;;;;;;;;6.50;6.00;;;;;12.10;64.41;102343.78;5058429;28;45648;-77
2021/10/23 00:46:24;;;;;;;;;7.00;7.00;;;;;12.18;64.17;102352.97;5058076;28;45340;-76
2021/10/23 00:48:50;;;;;;;;;7.50;7.25;;;;;12.21;64.17;102352.25;5057344;28;45853;-77
2021/10/23 00:51:16;;;;;;;;;6.00;6.00;;;;;12.20;64.38;102359.13;5058227;28;45250;-77
2021/10/23 00:53:45;;;;;;;;;7.50;7.50;;;;;12.21;63.90;102354.84;5057845;28;45170;-77
2021/10/23 00:56:10;;;;;;;;;8.25;5.75;;;;;12.23;63.88;102356.75;5057868;28;45354;-77
2021/10/23 00:58:38;;;;;;;;;7.25;7.25;;;;;12.23;64.04;102359.34;5057854;28;45308;-77
2021/10/23 01:01:04;;;;;;;;;7.50;7.50;;;;;12.21;64.13;102360.94;5058114;28;45368;-77
2021/10/23 01:03:29;;;;;;;;;9.50;7.50;;;;;12.25;63.57;102345.56;5057254;28;45573;-76
2021/10/23 01:05:55;;;;;;;;;9.00;7.25;;;;;12.22;63.58;102354.06;5039044;28;46524;-76
2021/10/23 01:08:21;;;;;;;;;4.00;3.50;;;;;12.19;63.91;102351.25;5057228;28;45235;-76
2021/10/23 01:10:47;;;;;;;;;7.00;6.00;;;;;12.19;63.85;102353.84;5057375;28;45351;-76
2021/10/23 01:13:13;;;;;;;;;8.25;6.00;;;;;12.21;63.86;102363.53;5058224;28;45285;-77
2021/10/23 01:15:39;;;;;;;;;9.00;7.00;;;;;12.10;63.62;102332.50;5056951;28;45895;-77
2021/10/23 01:18:07;;;;;;;;;9.00;7.75;;;;;12.11;63.67;102335.19;5057620;28;45328;-76
2021/10/23 01:20:34;;;;;;;;;8.50;7.50;;;;;12.18;63.52;102346.88;5057998;28;45306;-76
2021/10/23 01:23:00;;;;;;;;;7.75;7.00;;;;;12.17;63.67;102347.66;5057755;28;45210;-76
2021/10/23 01:25:28;;;;;;;;;10.00;10.00;;;;;12.18;63.56;102349.47;5057523;28;45542;-76
2021/10/23 01:28:00;;;;;;;;;7.50;6.75;;;;;12.14;63.50;102342.28;5057317;28;45324;-76
2021/10/23 01:30:26;;;;;;;;;8.75;7.75;;;;;12.19;63.42;102336.59;5057062;28;45717;-76
2021/10/23 01:32:53;;;;;;;;;8.50;7.75;;;;;12.16;63.45;102330.28;5057266;28;45218;-76
2021/10/23 01:35:22;;;;;;;;;8.75;5.75;;;;;12.18;63.34;102342.59;5039217;28;46269;-76
2021/10/23 01:37:48;;;;;;;;;9.00;8.75;;;;;12.17;62.97;102332.09;5057032;28;45515;-76
2021/10/23 01:40:17;;;;;;;;;6.25;5.50;;;;;12.15;63.31;102332.00;5057632;28;45227;-76
2021/10/23 01:42:43;;;;;;;;;8.50;7.50;;;;;12.14;62.87;102325.00;5057144;28;45605;-77
2021/10/23 01:45:09;;;;;;;;;8.25;7.25;;;;;12.15;63.23;102328.53;5057083;28;45332;-76
2021/10/23 01:47:39;;;;;;;;;9.50;7.50;;;;;12.08;63.44;102320.31;5056913;28;45343;-76
2021/10/23 01:50:12;;;;;;;;;10.50;8.75;;;;;12.08;63.53;102316.84;5057575;28;45279;-76
2021/10/23 01:52:39;;;;;;;;;7.00;6.50;;;;;12.12;63.36;102315.34;5057294;28;45299;-76
2021/10/23 01:55:05;;;;;;;;;12.00;9.50;;;;;12.14;63.30;102319.81;5057335;28;45471;-76
2021/10/23 01:57:30;;;;;;;;;6.25;5.25;;;;;12.09;63.03;102318.66;5055673;28;45756;-76
2021/10/23 01:59:56;;;;;;;;;8.50;6.00;;;;;12.14;63.14;102327.59;5038777;28;45417;-76
2021/10/23 02:02:21;;;;;;;;;10.00;7.50;;;;;12.16;63.21;102328.59;5056931;28;45474;-79
2021/10/23 02:04:47;;;;;;;;;11.50;8.00;;;;;12.17;63.18;102324.28;5056136;28;45984;-76
2021/10/23 02:07:13;;;;;;;;;7.00;7.00;;;;;12.20;63.24;102320.19;5057236;28;45687;-76
2021/10/23 02:09:38;;;;;;;;;7.50;6.00;;;;;12.22;62.89;102318.59;5056737;28;45366;-76
2021/10/23 02:12:05;;;;;;;;;10.00;7.25;;;;;12.18;62.92;102313.09;5056641;28;45516;-76
2021/10/23 02:14:31;;;;;;;;;8.25;6.75;;;;;12.19;62.99;102308.03;5055482;28;45532;-76
2021/10/23 02:16:56;;;;;;;;;8.00;6.00;;;;;12.20;62.82;102307.19;5056483;28;45788;-76
2021/10/23 02:19:22;;;;;;;;;9.75;7.00;;;;;12.22;62.60;102303.00;5056950;28;45331;-76
2021/10/23 02:21:48;;;;;;;;;6.75;6.75;;;;;12.19;62.62;102288.94;5056697;28;45403;-76
2021/10/23 02:24:14;;;;;;;;;6.00;6.00;;;;;12.18;62.10;102300.13;5055974;28;45393;-76
2021/10/23 02:26:40;;;;;;;;;7.00;5.25;;;;;12.11;62.30;102293.66;5055973;28;45363;-76
2021/10/23 02:29:06;;;;;;;;;8.00;7.25;;;;;12.14;62.39;102301.63;5057047;28;45392;-76
2021/10/23 02:31:32;;;;;;;;;7.25;5.25;;;;;12.12;62.34;102302.34;5056782;28;45217;-76
2021/10/23 02:33:58;;;;;;;;;7.00;5.75;;;;;12.08;62.45;102302.16;5056313;28;45418;-76
2021/10/23 02:36:23;;;;;;;;;6.00;5.50;;;;;12.04;62.62;102294.06;5056313;28;45437;-76
2021/10/23 02:38:49;;;;;;;;;7.50;6.50;;;;;12.08;62.73;102303.88;5056425;28;45241;-76
2021/10/23 02:41:17;;;;;;;;;7.00;6.00;;;;;12.10;62.47;102302.25;5055376;28;45547;-76
2021/10/23 02:43:43;;;;;;;;;6.75;6.00;;;;;12.16;62.01;102313.03;5056032;28;45551;-76
2021/10/23 02:46:08;;;;;;;;;6.25;5.50;;;;;12.13;62.61;102312.81;5038020;28;45338;-77
2021/10/23 02:48:34;;;;;;;;;5.50;5.25;;;;;12.15;62.64;102312.94;5056826;28;45273;-76
2021/10/23 02:51:00;;;;;;;;;7.25;6.75;;;;;12.15;62.72;102302.56;5055670;28;45429;-76
2021/10/23 02:53:26;;;;;;;;;6.00;6.00;;;;;12.22;62.46;102309.91;5054877;28;46448;-76
2021/10/23 02:55:51;;;;;;;;;5.00;4.00;;;;;12.20;62.29;102307.19;5055965;28;45336;-75
2021/10/23 02:58:17;;;;;;;;;6.50;5.75;;;;;12.24;62.43;102318.69;5056191;28;45323;-75
2021/10/23 03:00:43;;;;;;;;;8.25;6.50;;;;;12.25;62.28;102319.59;5056215;28;45663;-76
2021/10/23 03:03:08;;;;;;;;;6.00;6.00;;;;;12.25;62.27;102317.00;5055503;28;45823;-75
2021/10/23 03:05:34;;;;;;;;;8.00;6.50;;;;;12.23;62.11;102312.59;5056353;28;45430;-75
2021/10/23 03:08:00;;;;;;;;;11.50;5.00;;;;;12.22;62.11;102309.91;5055975;28;45442;-76
2021/10/23 03:10:26;;;;;;;;;6.50;5.50;;;;;12.23;62.37;102310.00;5056317;28;45340;-77
2021/10/23 03:12:51;;;;;;;;;6.25;5.25;;;;;12.23;61.83;102303.91;5055785;28;45451;-75
2021/10/23 03:15:18;;;;;;;;;7.00;5.00;;;;;12.26;62.09;102313.59;5055954;28;45516;-78
2021/10/23 03:17:44;;;;;;;;;8.00;5.00;;;;;12.22;61.82;102309.91;5055670;28;45335;-76
2021/10/23 03:20:10;;;;;;;;;7.00;5.25;;;;;12.20;62.03;102314.09;5038273;28;45247;-76
2021/10/23 03:22:35;;;;;;;;;7.00;7.00;;;;;12.18;62.00;102313.09;5056152;28;46464;-77
2021/10/23 03:25:01;;;;;;;;;5.75;4.00;;;;;12.14;62.04;102312.03;5055465;28;45318;-76
2021/10/23 03:27:27;;;;;;;;;7.00;5.75;;;;;12.14;62.11;102312.03;5059109;28;45496;-76
2021/10/23 03:29:53;;;;;;;;;6.00;5.00;;;;;12.10;62.13;102310.03;5059581;28;45526;-76
2021/10/23 03:32:19;;;;;;;;;4.75;4.75;;;;;12.15;62.02;102312.94;5059774;28;45347;-77
2021/10/23 03:34:45;;;;;;;;;5.25;4.25;;;;;12.17;61.85;102316.50;5058859;28;45331;-76
2021/10/23 03:37:10;;;;;;;;;7.50;7.25;;;;;12.18;61.96;102310.50;5059050;28;45418;-76
2021/10/23 03:39:38;;;;;;;;;7.25;6.75;;;;;12.11;62.05;102306.63;5060048;28;45818;-77
2021/10/23 03:42:04;;;;;;;;;6.00;6.00;;;;;12.13;61.73;102311.94;5059314;28;45916;-76
2021/10/23 03:44:30;;;;;;;;;8.50;7.75;;;;;12.14;61.95;102316.34;5059240;28;45403;-76
2021/10/23 03:46:55;;;;;;;;;9.50;7.25;;;;;12.11;61.96;102309.22;5040858;28;45315;-77
2021/10/23 03:49:21;;;;;;;;;10.25;8.00;;;;;12.08;62.04;102301.28;5059099;28;45263;-76
2021/10/23 03:51:46;;;;;;;;;12.50;10.25;;;;;12.11;62.07;102301.44;5058407;28;45547;-77
2021/10/23 03:54:12;;;;;;;;;9.00;9.00;;;;;12.15;61.93;102310.34;5058950;28;45478;-77
2021/10/23 03:56:38;;;;;;;;;7.75;6.75;;;;;12.19;62.07;102307.13;5058842;28;45224;-77
2021/10/23 03:59:03;;;;;;;;;12.00;9.00;;;;;12.14;61.94;102291.25;5059697;28;45335;-77
2021/10/23 04:01:29;;;;;;;;;9.25;6.75;;;;;12.20;61.84;102301.13;5058418;28;45359;-77
2021/10/23 04:03:55;;;;;;;;;6.00;6.00;;;;;12.18;61.77;102303.63;5058846;28;45391;-77
2021/10/23 04:06:20;;;;;;;;;10.00;7.25;;;;;12.12;61.89;102286.78;5058935;28;45354;-76
2021/10/23 04:08:46;;;;;;;;;9.75;8.75;;;;;12.12;61.96;102287.66;5058831;28;45600;-77
2021/10/23 04:11:11;;;;;;;;;7.25;7.25;;;;;12.17;61.99;102298.31;5058576;28;45844;-77
2021/10/23 04:13:37;;;;;;;;;9.75;7.00;;;;;12.17;62.02;102304.44;5039777;28;45475;-78
2021/10/23 04:16:03;;;;;;;;;10.00;6.75;;;;;12.16;62.09;102302.63;5059095;28;45494;-77
2021/10/23 04:18:28;;;;;;;;;7.00;6.50;;;;;12.15;62.52;102295.66;5058181;28;45460;-77
2021/10/23 04:20:54;;;;;;;;;5.25;5.25;;;;;12.15;62.13;102295.66;5058140;28;45449;-76
2021/10/23 04:23:20;;;;;;;;;11.50;9.00;;;;;12.16;62.10;102302.63;5058027;28;45316;-77
2021/10/23 04:25:45;;;;;;;;;6.75;6.75;;;;;12.14;62.34;102295.56;5058393;28;45438;-77
2021/10/23 04:28:11;;;;;;;;;6.75;6.75;;;;;12.12;62.24;102287.66;5058534;28;45351;-77
2021/10/23 04:30:36;;;;;;;;;7.25;6.75;;;;;12.15;62.27;102298.25;5058517;28;46019;-76
2021/10/23 04:33:03;;;;;;;;;8.00;6.25;;;;;12.14;62.35;102292.97;5058855;28;45297;-76
2021/10/23 04:35:28;;;;;;;;;7.00;7.00;;;;;12.11;62.39;102297.97;5058302;28;45367;-77
2021/10/23 04:37:54;;;;;;;;;7.00;6.00;;;;;12.12;62.30;102298.03;5058224;28;45310;-77
2021/10/23 04:40:19;;;;;;;;;12.00;8.00;;;;;12.17;62.43;102308.72;5058383;28;46079;-77
2021/10/23 04:42:45;;;;;;;;;7.00;7.00;;;;;12.19;62.39;102307.13;5057453;28;45526;-77
2021/10/23 04:45:11;;;;;;;;;7.00;7.00;;;;;12.17;62.35;102296.66;5058336;28;45394;-75
2021/10/23 04:47:37;;;;;;;;;8.25;7.00;;;;;12.20;62.13;102295.94;5058823;28;46032;-76
2021/10/23 04:50:03;;;;;;;;;12.25;9.00;;;;;12.22;61.93;102304.72;5058312;28;46039;-77
2021/10/23 04:52:29;;;;;;;;;7.25;6.00;;;;;12.20;62.01;102309.78;5057538;28;45835;-76
2021/10/23 04:54:54;;;;;;;;;12.00;8.25;;;;;12.14;62.16;102299.03;5058042;28;45228;-76
2021/10/23 04:57:20;;;;;;;;;7.50;6.75;;;;;12.19;62.07;102307.13;5058519;28;45236;-76
2021/10/23 04:59:46;;;;;;;;;8.00;6.00;;;;;12.20;62.14;102309.78;5057340;28;45249;-77
2021/10/23 05:02:11;;;;;;;;;6.75;6.00;;;;;12.21;62.34;102314.19;5057818;28;45373;-77
2021/10/23 05:04:37;;;;;;;;;6.25;6.25;;;;;12.21;62.18;102302.91;5057292;28;45336;-77
2021/10/23 05:07:03;;;;;;;;;4.00;3.25;;;;;12.23;62.03;102302.19;5057729;28;45531;-78
2021/10/23 05:09:28;;;;;;;;;6.50;5.50;;;;;12.33;61.81;102319.28;5057803;28;45961;-78
2021/10/23 05:11:54;;;;;;;;;5.75;5.00;;;;;12.35;61.73;102316.75;5039462;28;45393;-78
2021/10/23 05:14:20;;;;;;;;;4.25;4.25;;;;;12.30;61.75;102316.47;5057893;28;45317;-77
2021/10/23 05:16:47;;;;;;;;;6.50;6.50;;;;;12.27;61.65;102310.19;5057383;28;45515;-77
2021/10/23 05:19:13;;;;;;;;;6.75;6.00;;;;;12.37;61.61;102325.53;5057630;28;45417;-79
2021/10/23 05:21:38;;;;;;;;;6.75;5.50;;;;;12.38;61.74;102322.16;5057214;28;45306;-77
2021/10/23 05:24:04;;;;;;;;;7.00;7.00;;;;;12.36;61.87;102315.97;5057763;28;45246;-77
2021/10/23 05:26:30;;;;;;;;;6.75;4.50;;;;;12.34;61.92;102318.47;5057135;28;45626;-77
2021/10/23 05:28:55;;;;;;;;;7.25;6.25;;;;;12.36;62.05;102319.44;5056765;28;46076;-76
2021/10/23 05:31:21;;;;;;;;;7.00;6.00;;;;;12.36;61.85;102315.97;5057561;28;45401;-76
2021/10/23 05:33:47;;;;;;;;;4.00;4.00;;;;;12.38;62.19;102319.56;5057456;28;45352;-76
2021/10/23 05:36:12;;;;;;;;;7.00;7.00;;;;;12.40;62.05;102317.94;5057058;28;45224;-76
2021/10/23 05:38:38;;;;;;;;;10.50;8.75;;;;;12.43;62.26;102325.03;5056354;28;45399;-76
2021/10/23 05:41:04;;;;;;;;;10.50;8.00;;;;;12.38;62.19;102320.44;5038136;28;45501;-78
2021/10/23 05:43:29;;;;;;;;;8.25;8.00;;;;;12.41;62.43;102326.63;5057128;28;45327;-77
2021/10/23 05:45:55;;;;;;;;;9.00;7.25;;;;;12.38;62.26;102320.44;5039240;28;45622;-76
2021/10/23 05:48:20;;;;;;;;;5.50;5.50;;;;;12.42;62.28;102318.91;5057172;28;46375;-76
2021/10/23 05:50:46;;;;;;;;;7.00;6.00;;;;;12.42;62.47;102312.84;5057275;28;45344;-75
2021/10/23 05:53:12;;;;;;;;;10.00;6.25;;;;;12.36;62.52;102311.66;5057386;28;45406;-75
2021/10/23 05:55:38;;;;;;;;;8.50;8.50;;;;;12.42;62.63;102318.91;5057382;28;45598;-75
2021/10/23 05:58:05;;;;;;;;;8.00;5.50;;;;;12.43;62.56;102317.22;5071183;28;45538;-82
2021/10/23 06:00:34;;;;;;;;;5.00;5.00;;;;;12.29;62.39;102298.22;5077825;27;45813;-76
2021/10/23 06:03:01;;;;;;;;;8.75;8.25;;;;;12.39;62.38;102323.94;5077243;27;45459;-75
2021/10/23 06:05:26;;;;;;;;;11.00;6.75;;;;;12.32;62.07;102321.75;5077045;27;45371;-80
2021/10/23 06:07:52;;;;;;;;;6.25;5.25;;;;;12.35;62.02;102335.84;5055787;28;45477;-80
2021/10/23 06:10:18;;;;;;;;;7.75;7.25;;;;;12.33;62.22;102332.25;5056406;28;45550;-81
2021/10/23 06:12:45;;;;;;;;;9.75;9.75;;;;;12.31;62.02;102332.97;5057267;28;45454;-83
2021/10/23 06:15:11;;;;;;;;;4.00;4.00;;;;;12.26;61.84;102340.44;5056193;28;45512;-76
2021/10/23 06:17:37;;;;;;;;;7.00;7.00;;;;;12.18;62.15;102326.09;5055870;28;45485;-77
2021/10/23 06:20:03;;;;;;;;;5.00;5.00;;;;;12.25;62.19;102337.75;5055336;28;45463;-74
2021/10/23 06:22:30;;;;;;;;;9.50;6.25;;;;;12.22;62.04;102333.28;5055347;28;45546;-76
2021/10/23 06:24:56;;;;;;;;;5.50;5.50;;;;;12.25;61.93;102341.28;5052285;28;45335;-75
2021/10/23 06:27:22;;;;;;;;;8.50;6.00;;;;;12.25;61.66;102343.88;5054571;28;45841;-75
2021/10/23 06:29:48;;;;;;;;;6.50;5.75;;;;;12.14;62.05;102330.19;5054532;28;45454;-76
2021/10/23 06:32:13;;;;;;;;;7.25;7.25;;;;;12.16;62.13;102339.00;5056685;28;45273;-75
2021/10/23 06:34:41;;;;;;;;;6.50;5.00;;;;;12.27;62.13;102352.63;5056436;28;45350;-75
2021/10/23 06:37:10;;;;;;;;;5.75;5.75;;;;;12.23;62.32;102341.16;5056212;28;46092;-77
2021/10/23 06:39:37;;;;;;;;;10.25;7.50;;;;;12.30;61.82;102351.94;5036692;28;45509;-76
2021/10/23 06:42:03;;;;;;;;;6.50;5.50;;;;;12.33;62.11;102365.09;5056683;28;45345;-73
2021/10/23 06:44:35;;;;;;;;;7.00;6.00;;;;;12.35;61.69;102367.03;5056644;28;45590;-76
2021/10/23 06:47:02;;;;;;;;;6.50;6.25;;;;;12.33;62.29;102353.03;5042071;28;48076;-74
2021/10/23 06:49:27;;;;;;;;;8.00;5.50;;;;;12.32;61.59;102359.03;5056226;28;45348;-75
2021/10/23 06:51:53;;;;;;;;;8.00;7.75;;;;;12.27;62.14;102355.22;5055388;28;45417;-80
2021/10/23 06:54:19;;;;;;;;;8.25;5.75;;;;;12.34;62.19;102364.31;5056028;28;45359;-81
2021/10/23 06:56:44;;;;;;;;;4.50;4.25;;;;;12.28;62.03;102366.53;5055270;28;45934;-80
2021/10/23 06:59:10;;;;;;;;;9.50;6.00;;;;;12.38;62.16;102381.88;5055175;28;45323;-82
2021/10/23 07:01:35;;;;;;;;;6.00;5.00;;;;;12.31;62.12;102361.53;5054477;28;45394;-79
2021/10/23 07:04:01;;;;;;;;;6.50;6.00;;;;;12.34;62.01;102370.41;5055824;28;45296;-80
2021/10/23 07:06:27;;;;;;;;;5.00;5.00;;;;;12.43;62.05;102376.97;5056072;28;46618;-76
2021/10/23 07:08:53;;;;;;;;;8.25;5.25;;;;;12.47;61.81;102386.78;5056439;28;45237;-78
2021/10/23 07:11:18;;;;;;;;;7.75;5.50;;;;;12.51;61.82;102388.75;5055399;28;45511;-74
2021/10/23 07:13:44;;;;;;;;;8.25;6.50;;;;;12.47;61.96;102385.06;5055464;28;45521;-76
2021/10/23 07:16:10;;;;;;;;;6.75;5.00;;;;;12.56;61.63;102407.22;5055811;28;45823;-83
2021/10/23 07:18:36;;;;;;;;;14.00;9.00;;;;;12.57;61.64;102409.91;5056140;28;45887;-76
2021/10/23 07:21:02;;;;;;;;;12.75;7.00;;;;;12.56;61.38;102399.41;5056302;28;45435;-75
2021/10/23 07:23:27;;;;;;;;;8.25;7.00;;;;;12.58;61.45;102400.41;5056048;28;45538;-73
2021/10/23 07:25:53;;;;;;;;;8.00;7.00;;;;;12.67;61.37;102416.56;5054532;28;45483;-74
2021/10/23 07:28:18;;;;;;;;;10.25;9.75;;;;;12.69;61.27;102414.97;5055084;28;45326;-76
2021/10/23 07:30:44;;;;;;;;;10.00;7.00;;;;;12.75;61.05;102415.34;5054879;28;45391;-76
2021/10/23 07:33:09;;;;;;;;;10.25;7.75;;;;;12.77;60.71;102418.06;5055048;28;45388;-77
2021/10/23 07:35:35;;;;;;;;;10.75;10.75;;;;;12.82;60.68;102421.81;5055341;28;45872;-76
2021/10/23 07:38:02;;;;;;;;;12.75;10.00;;;;;12.84;60.69;102421.13;5054356;28;45356;-77
2021/10/23 07:40:28;;;;;;;;;15.25;11.00;;;;;12.87;60.32;102424.69;5055538;28;45452;-78
2021/10/23 07:42:53;;;;;;;;;10.00;8.50;;;;;12.90;60.38;102436.19;5055649;28;45457;-79
2021/10/23 07:45:19;;;;;;;;;10.50;9.25;;;;;12.88;60.38;102432.59;5037116;28;46478;-76
2021/10/23 07:47:45;;;;;;;;;12.00;8.00;;;;;12.91;60.17;102439.69;5051398;28;45362;-77
2021/10/23 07:50:11;;;;;;;;;10.50;8.75;;;;;12.91;59.95;102440.56;5055350;28;45454;-78
2021/10/23 07:52:38;;;;;;;;;9.75;9.00;;;;;12.93;59.81;102441.56;5054872;28;45321;-78
2021/10/23 07:55:05;;;;;;;;;13.25;9.25;;;;;12.91;59.79;102447.50;5055190;28;46147;-74
2021/10/23 07:57:30;;;;;;;;;9.00;8.25;;;;;12.90;59.73;102448.28;5054979;28;45751;-76
2021/10/23 07:59:56;;;;;;;;;9.75;9.00;;;;;12.89;59.87;102449.09;5054916;28;45222;-74
2021/10/23 08:02:22;;;;;;;;;12.00;9.00;;;;;12.90;59.85;102449.19;5055291;28;45237;-75
2021/10/23 08:04:47;;;;;;;;;12.50;11.00;;;;;12.94;59.82;102453.75;5054631;28;45307;-74
2021/10/23 08:07:13;;;;;;;;;10.00;8.50;;;;;12.90;59.81;102449.19;5055051;28;45344;-74
2021/10/23 08:09:39;;;;;;;;;12.00;11.00;;;;;12.95;59.99;102455.56;5054476;28;45554;-74
2021/10/23 08:12:05;;;;;;;;;9.50;9.50;;;;;12.97;59.81;102458.25;5057205;28;45599;-75
2021/10/23 08:14:36;;;;;;;;;12.75;11.00;;;;;12.99;59.93;102454.97;5058390;28;45539;-74
2021/10/23 08:17:04;;;;;;;;;13.75;10.00;;;;;13.01;59.83;102450.72;5040330;28;45299;-74
2021/10/23 08:19:29;;;;;;;;;9.25;9.00;;;;;13.04;59.48;102459.53;5058426;28;45505;-75
2021/10/23 08:21:55;;;;;;;;;8.00;7.00;;;;;12.99;59.74;102452.38;5058109;28;45524;-74
2021/10/23 08:24:21;;;;;;;;;10.25;8.50;;;;;13.02;59.39;102462.03;5056655;28;45436;-76
2021/10/23 08:26:47;;;;;;;;;10.50;10.25;;;;;13.01;59.69;102450.72;5057241;28;45895;-74
2021/10/23 08:29:13;;;;;;;;;8.50;6.00;;;;;13.06;59.47;102440.63;5058127;28;45438;-74
2021/10/23 08:31:39;;;;;;;;;9.00;7.75;;;;;13.15;59.30;102450.69;5058108;28;45625;-74
2021/10/23 08:34:05;;;;;;;;;12.00;9.25;;;;;13.22;59.40;102450.28;5040297;28;47932;-75
2021/10/23 08:36:31;;;;;;;;;8.75;8.00;;;;;13.15;59.22;102437.69;5058226;28;45356;-76
2021/10/23 08:38:57;;;;;;;;;8.25;5.75;;;;;13.15;59.20;102443.78;5058097;28;45399;-76
2021/10/23 08:41:24;;;;;;;;;10.00;7.75;;;;;13.24;59.35;102450.34;5058558;28;45226;-76
2021/10/23 08:43:51;;;;;;;;;10.00;8.50;;;;;13.30;59.26;102456.81;5038802;28;45328;-75
2021/10/23 08:46:27;;;;;;;;;9.50;7.75;;;;;13.37;58.93;102459.78;5058083;28;45874;-76
2021/10/23 08:48:54;;;;;;;;;8.00;8.00;;;;;13.42;59.35;102453.19;5057927;28;45265;-75
2021/10/23 08:51:21;;;;;;;;;8.25;8.25;;;;;13.45;58.75;102456.88;5058262;28;45185;-76
2021/10/23 08:53:48;;;;;;;;;10.75;9.50;;;;;13.48;58.60;102447.47;5039216;28;46840;-76
2021/10/23 08:56:14;;;;;;;;;6.75;6.00;;;;;13.49;58.69;102447.53;5057552;28;45788;-76
2021/10/23 08:58:41;;;;;;;;;5.75;5.75;;;;;13.53;58.15;102453.81;5057569;28;45404;-75
2021/10/23 09:01:09;;;;;;;;;9.25;7.00;;;;;13.62;58.47;102456.94;5058070;28;45512;-75
2021/10/23 09:03:35;;;;;;;;;8.00;5.75;;;;;13.62;58.26;102454.34;5057549;28;45450;-75
2021/10/23 09:06:02;;;;;;;;;4.75;4.75;;;;;13.62;58.41;102451.75;5057334;28;45949;-74
2021/10/23 09:08:28;;;;;;;;;8.25;6.50;;;;;13.69;58.14;102463.41;5057823;28;45324;-79
2021/10/23 09:10:56;;;;;;;;;9.25;6.00;;;;;13.70;58.56;102462.63;5057671;28;45392;-76
2021/10/23 09:13:37;;;;;;;;;9.00;7.00;;;;;13.70;58.40;102455.72;5057280;28;45387;-75
2021/10/23 09:16:18;;;;;;;;;8.75;7.75;;;;;13.68;58.54;102453.81;5039167;28;45297;-75
2021/10/23 09:18:46;;;;;;;;;6.50;5.00;;;;;13.71;58.56;102454.00;5057414;28;45321;-75
2021/10/23 09:21:22;;;;;;;;;6.00;6.00;;;;;13.76;58.65;102461.28;5057682;28;45230;-75
2021/10/23 09:23:49;;;;;;;;;9.25;8.00;;;;;13.82;58.18;102457.25;5056009;28;45358;-75
2021/10/23 09:26:37;;;;;;;;;7.50;7.00;;;;;13.85;58.07;102455.72;5056892;28;45855;-75
2021/10/23 09:29:16;;;;;;;;;8.50;8.00;;;;;13.87;58.64;102459.31;5057727;28;45378;-76
2021/10/23 09:31:46;;;;;;;;;8.75;8.75;;;;;13.89;58.33;102456.78;5057389;28;45339;-75
2021/10/23 09:34:17;;;;;;;;;7.75;7.25;;;;;13.91;58.66;102452.56;5057540;28;46340;-76
2021/10/23 09:36:45;;;;;;;;;10.25;7.50;;;;;13.92;58.30;102454.38;5056937;28;45391;-77
2021/10/23 09:39:10;;;;;;;;;9.00;8.00;;;;;13.97;57.92;102452.91;5057220;28;45323;-75
2021/10/23 09:41:36;;;;;;;;;9.25;8.75;;;;;13.93;58.26;102438.81;5057756;28;45414;-76
2021/10/23 09:44:15;;;;;;;;;8.00;8.00;;;;;14.00;58.41;102453.09;5056956;28;45414;-76
2021/10/23 09:46:53;;;;;;;;;10.75;9.50;;;;;13.99;58.33;102456.50;5056771;28;45414;-76
2021/10/23 09:49:18;;;;;;;;;8.00;8.00;;;;;13.98;57.95;102453.81;5057082;28;45457;-76
2021/10/23 09:51:44;;;;;;;;;8.25;7.50;;;;;13.96;58.25;102452.81;5057049;28;45582;-75
2021/10/23 09:54:15;;;;;;;;;10.75;6.75;;;;;13.95;58.32;102440.63;5057429;28;45927;-76
2021/10/23 09:56:50;;;;;;;;;9.75;9.75;;;;;14.00;58.34;102450.50;5056907;28;45891;-76
2021/10/23 09:59:26;;;;;;;;;9.75;7.75;;;;;14.02;58.23;102451.47;5057282;28;45231;-75
2021/10/23 10:02:00;;;;;;;;;8.00;8.00;;;;;14.07;58.09;102451.75;5057075;28;45243;-75
2021/10/23 10:04:29;;;;;;;;;9.50;8.50;;;;;14.10;58.02;102451.88;5056933;28;45538;-75
2021/10/23 10:06:55;;;;;;;;;10.75;8.50;;;;;14.11;58.38;102448.47;5056113;28;45412;-75
2021/10/23 10:09:23;;;;;;;;;9.25;8.00;;;;;14.11;57.89;102455.41;5056854;28;45365;-76
2021/10/23 10:11:56;;;;;;;;;13.50;7.75;;;;;14.10;57.94;102444.06;5038716;28;45389;-75
2021/10/23 10:14:24;;;;;;;;;12.25;8.75;;;;;14.07;58.38;102441.31;5056960;28;45871;-75
2021/10/23 10:16:57;;;;;;;;;9.75;9.75;;;;;14.07;58.15;102425.69;5056520;28;45981;-80
2021/10/23 10:19:23;;;;;;;;;7.00;7.00;;;;;14.12;58.32;102447.66;5038689;28;45372;-75
2021/10/23 10:21:51;;;;;;;;;8.50;8.25;;;;;14.13;57.93;102449.47;5056536;28;45323;-75
2021/10/23 10:24:24;;;;;;;;;10.50;9.00;;;;;14.11;57.90;102448.47;5056320;28;46161;-75
2021/10/23 10:27:04;;;;;;;;;7.75;7.75;;;;;14.13;58.21;102459.00;5057211;28;45265;-77
2021/10/23 10:29:44;;;;;;;;;7.50;7.50;;;;;14.08;58.53;102440.50;5056522;28;45342;-78
2021/10/23 10:32:17;;;;;;;;;9.50;6.75;;;;;14.02;58.28;102434.94;5056583;28;45485;-80
2021/10/23 10:37:42;;;;;;;;;9.00;6.25;;;;;14.07;58.25;102451.75;5058498;28;45770;-82
2021/10/23 10:45:40;;;;;;;;;6.50;5.00;;;;;14.08;58.76;102443.13;5060837;28;45679;-82
2021/10/23 10:48:15;;;;;;;;;9.25;6.50;;;;;14.08;58.61;102443.13;5058772;28;45358;-84
2021/10/23 10:50:44;;;;;;;;;4.50;4.00;;;;;14.08;58.70;102441.41;5060069;28;45246;-86
2021/10/23 10:53:22;;;;;;;;;8.00;5.25;;;;;14.09;58.17;102435.38;5047186;28;45540;-94
2021/10/23 10:55:55;;;;;;;;;10.75;8.25;;;;;14.08;58.47;102427.50;5040329;28;46696;-80
2021/10/23 10:58:46;;;;;;;;;8.00;6.75;;;;;14.01;58.86;102412.31;5056435;28;45403;-84
2021/10/23 11:01:30;;;;;;;;;7.50;6.75;;;;;14.11;58.51;102427.63;5036517;28;45453;-82
2021/10/23 11:04:02;;;;;;;;;9.50;7.75;;;;;14.12;58.83;102429.44;5053957;28;45910;-80
2021/10/23 11:06:34;;;;;;;;;6.75;6.75;;;;;14.13;59.03;102425.13;5059625;28;45336;-92
2021/10/23 11:09:11;;;;;;;;;7.25;6.75;;;;;14.12;59.01;102424.22;5042853;28;45360;-95
2021/10/23 11:11:49;;;;;;;;;8.75;8.50;;;;;14.11;58.57;102422.44;5062885;28;45239;-84
2021/10/23 11:14:21;;;;;;;;;7.00;7.00;;;;;14.11;58.77;102417.22;5056560;28;45323;-78
2021/10/23 11:16:59;;;;;;;;;8.75;7.00;;;;;14.14;59.17;102422.63;5055185;28;45427;-88
2021/10/23 11:19:28;;;;;;;;;13.00;9.50;;;;;14.19;58.99;102420.25;5056043;28;45472;-81
2021/10/23 11:22:22;;;;;;;;;9.75;6.75;;;;;14.20;58.53;102424.66;5059087;28;45471;-85
2021/10/23 11:24:52;;;;;;;;;6.75;5.25;;;;;14.21;58.78;102418.66;5057460;28;45372;-79
2021/10/23 11:27:32;;;;;;;;;7.00;6.50;;;;;14.22;58.42;102415.22;5058167;28;45370;-80
2021/10/23 11:30:10;;;;;;;;;9.00;8.50;;;;;14.22;57.71;102416.13;5037533;28;45458;-77
2021/10/23 11:32:46;;;;;;;;;7.50;6.00;;;;;14.23;57.62;102410.09;5056254;28;45477;-81